sensor_id;sensor_type;location;lat;lon;timestamp;P1;durP1;ratioP1;P2;durP2;ratioP2
35745;SDS011;21870;42.812;74.628;2023-04-09T00:01:05;5.53;;;2.40;;
35745;SDS011;21870;42.812;74.628;2023-04-09T00:03:33;2.58;;;1.75;;
35745;SDS011;21870;42.812;74.628;2023-04-09T00:05:59;4.13;;;1.80;;
35745;SDS011;21870;42.812;74.628;2023-04-09T00:08:32;4.13;;;2.03;;
35745;SDS011;21870;42.812;74.628;2023-04-09T00:10:58;2.95;;;1.98;;
35745;SDS011;21870;42.812;74.628;2023-04-09T00:13:25;3.67;;;1.88;;
35745;SDS011;21870;42.812;74.628;2023-04-09T00:15:51;4.40;;;2.28;;
35745;SDS011;21870;42.812;74.628;2023-04-09T00:18:17;4.03;;;1.85;;
35745;SDS011;21870;42.812;74.628;2023-04-09T00:20:43;2.88;;;1.65;;
35745;SDS011;21870;42.812;74.628;2023-04-09T00:23:09;4.75;;;2.00;;
35745;SDS011;21870;42.812;74.628;2023-04-09T00:25:35;2.95;;;2.40;;
35745;SDS011;21870;42.812;74.628;2023-04-09T00:28:01;4.93;;;2.95;;
35745;SDS011;21870;42.812;74.628;2023-04-09T00:30:28;4.63;;;3.33;;
35745;SDS011;21870;42.812;74.628;2023-04-09T00:32:55;4.13;;;2.55;;
35745;SDS011;21870;42.812;74.628;2023-04-09T00:35:22;4.47;;;3.40;;
35745;SDS011;21870;42.812;74.628;2023-04-09T00:37:48;5.03;;;2.80;;
35745;SDS011;21870;42.812;74.628;2023-04-09T00:40:14;4.35;;;2.17;;
35745;SDS011;21870;42.812;74.628;2023-04-09T00:42:40;4.78;;;2.42;;
35745;SDS011;21870;42.812;74.628;2023-04-09T00:45:06;5.15;;;2.65;;
35745;SDS011;21870;42.812;74.628;2023-04-09T00:47:33;3.08;;;2.53;;
35745;SDS011;21870;42.812;74.628;2023-04-09T00:50:00;7.05;;;2.65;;
35745;SDS011;21870;42.812;74.628;2023-04-09T00:52:27;4.22;;;2.40;;
35745;SDS011;21870;42.812;74.628;2023-04-09T00:54:58;3.20;;;2.35;;
35745;SDS011;21870;42.812;74.628;2023-04-09T00:57:25;6.03;;;2.72;;
35745;SDS011;21870;42.812;74.628;2023-04-09T00:59:52;6.10;;;2.58;;
35745;SDS011;21870;42.812;74.628;2023-04-09T01:02:19;4.03;;;3.08;;
35745;SDS011;21870;42.812;74.628;2023-04-09T01:04:45;3.15;;;2.05;;
35745;SDS011;21870;42.812;74.628;2023-04-09T01:10:09;6.22;;;2.65;;
35745;SDS011;21870;42.812;74.628;2023-04-09T01:16:03;4.97;;;2.30;;
35745;SDS011;21870;42.812;74.628;2023-04-09T01:23:55;6.32;;;2.00;;
35745;SDS011;21870;42.812;74.628;2023-04-09T01:29:33;5.45;;;2.78;;
35745;SDS011;21870;42.812;74.628;2023-04-09T01:32:06;5.82;;;2.58;;
35745;SDS011;21870;42.812;74.628;2023-04-09T01:34:33;6.80;;;2.80;;
35745;SDS011;21870;42.812;74.628;2023-04-09T01:37:01;5.95;;;2.33;;
35745;SDS011;21870;42.812;74.628;2023-04-09T01:39:31;9.10;;;3.88;;
35745;SDS011;21870;42.812;74.628;2023-04-09T01:41:57;8.25;;;4.05;;
35745;SDS011;21870;42.812;74.628;2023-04-09T01:44:24;8.98;;;4.68;;
35745;SDS011;21870;42.812;74.628;2023-04-09T01:46:51;8.68;;;3.95;;
35745;SDS011;21870;42.812;74.628;2023-04-09T01:49:20;7.25;;;2.88;;
35745;SDS011;21870;42.812;74.628;2023-04-09T01:51:46;8.27;;;2.75;;
35745;SDS011;21870;42.812;74.628;2023-04-09T01:54:13;5.18;;;2.67;;
35745;SDS011;21870;42.812;74.628;2023-04-09T01:56:43;10.23;;;2.92;;
35745;SDS011;21870;42.812;74.628;2023-04-09T01:59:11;9.15;;;4.28;;
35745;SDS011;21870;42.812;74.628;2023-04-09T02:02:00;7.13;;;3.78;;
35745;SDS011;21870;42.812;74.628;2023-04-09T02:04:26;7.35;;;2.83;;
35745;SDS011;21870;42.812;74.628;2023-04-09T02:07:04;10.52;;;3.28;;
35745;SDS011;21870;42.812;74.628;2023-04-09T02:09:33;8.52;;;3.00;;
35745;SDS011;21870;42.812;74.628;2023-04-09T02:12:02;6.60;;;2.92;;
35745;SDS011;21870;42.812;74.628;2023-04-09T02:14:33;8.30;;;2.85;;
35745;SDS011;21870;42.812;74.628;2023-04-09T02:17:01;10.27;;;3.90;;
35745;SDS011;21870;42.812;74.628;2023-04-09T02:19:37;6.13;;;3.20;;
35745;SDS011;21870;42.812;74.628;2023-04-09T02:22:13;6.55;;;3.33;;
35745;SDS011;21870;42.812;74.628;2023-04-09T02:24:40;9.52;;;4.43;;
35745;SDS011;21870;42.812;74.628;2023-04-09T02:27:06;8.48;;;4.15;;
35745;SDS011;21870;42.812;74.628;2023-04-09T02:29:33;15.52;;;4.70;;
35745;SDS011;21870;42.812;74.628;2023-04-09T02:31:59;9.10;;;4.32;;
35745;SDS011;21870;42.812;74.628;2023-04-09T02:34:25;13.20;;;4.28;;
35745;SDS011;21870;42.812;74.628;2023-04-09T02:36:52;9.60;;;4.47;;
35745;SDS011;21870;42.812;74.628;2023-04-09T02:39:18;9.43;;;3.72;;
35745;SDS011;21870;42.812;74.628;2023-04-09T02:41:44;6.45;;;3.83;;
35745;SDS011;21870;42.812;74.628;2023-04-09T02:44:10;6.45;;;3.30;;
35745;SDS011;21870;42.812;74.628;2023-04-09T02:46:37;8.80;;;3.60;;
35745;SDS011;21870;42.812;74.628;2023-04-09T02:49:03;7.85;;;2.55;;
35745;SDS011;21870;42.812;74.628;2023-04-09T02:51:29;6.05;;;3.30;;
35745;SDS011;21870;42.812;74.628;2023-04-09T02:53:55;6.38;;;2.63;;
35745;SDS011;21870;42.812;74.628;2023-04-09T02:56:21;7.85;;;3.28;;
35745;SDS011;21870;42.812;74.628;2023-04-09T02:58:47;5.28;;;3.08;;
35745;SDS011;21870;42.812;74.628;2023-04-09T03:01:18;9.73;;;3.85;;
35745;SDS011;21870;42.812;74.628;2023-04-09T03:03:45;18.33;;;3.47;;
35745;SDS011;21870;42.812;74.628;2023-04-09T03:06:11;6.60;;;3.42;;
35745;SDS011;21870;42.812;74.628;2023-04-09T03:08:37;5.80;;;2.70;;
35745;SDS011;21870;42.812;74.628;2023-04-09T03:11:03;4.68;;;2.58;;
35745;SDS011;21870;42.812;74.628;2023-04-09T03:13:29;7.30;;;2.10;;
35745;SDS011;21870;42.812;74.628;2023-04-09T03:15:55;4.57;;;2.22;;
35745;SDS011;21870;42.812;74.628;2023-04-09T03:18:21;4.78;;;2.40;;
35745;SDS011;21870;42.812;74.628;2023-04-09T03:20:47;5.85;;;2.80;;
35745;SDS011;21870;42.812;74.628;2023-04-09T03:23:14;4.93;;;2.53;;
35745;SDS011;21870;42.812;74.628;2023-04-09T03:25:40;4.75;;;2.63;;
35745;SDS011;21870;42.812;74.628;2023-04-09T03:28:06;6.20;;;3.00;;
35745;SDS011;21870;42.812;74.628;2023-04-09T03:30:32;7.32;;;3.85;;
35745;SDS011;21870;42.812;74.628;2023-04-09T03:32:58;11.82;;;4.35;;
35745;SDS011;21870;42.812;74.628;2023-04-09T03:35:24;7.45;;;4.28;;
35745;SDS011;21870;42.812;74.628;2023-04-09T03:37:50;8.88;;;4.00;;
35745;SDS011;21870;42.812;74.628;2023-04-09T03:40:16;8.10;;;4.22;;
35745;SDS011;21870;42.812;74.628;2023-04-09T03:42:42;4.70;;;2.78;;
35745;SDS011;21870;42.812;74.628;2023-04-09T03:45:08;10.05;;;3.92;;
35745;SDS011;21870;42.812;74.628;2023-04-09T03:47:35;5.00;;;3.65;;
35745;SDS011;21870;42.812;74.628;2023-04-09T03:50:01;5.57;;;3.45;;
35745;SDS011;21870;42.812;74.628;2023-04-09T03:52:28;5.75;;;3.55;;
35745;SDS011;21870;42.812;74.628;2023-04-09T03:54:54;5.72;;;2.97;;
35745;SDS011;21870;42.812;74.628;2023-04-09T03:57:20;5.18;;;3.25;;
35745;SDS011;21870;42.812;74.628;2023-04-09T03:59:46;4.13;;;3.10;;
35745;SDS011;21870;42.812;74.628;2023-04-09T04:02:12;6.13;;;3.80;;
35745;SDS011;21870;42.812;74.628;2023-04-09T04:04:38;6.25;;;3.45;;
35745;SDS011;21870;42.812;74.628;2023-04-09T04:07:04;4.90;;;3.28;;
35745;SDS011;21870;42.812;74.628;2023-04-09T04:09:31;12.68;;;4.40;;
35745;SDS011;21870;42.812;74.628;2023-04-09T04:11:57;14.38;;;4.97;;
35745;SDS011;21870;42.812;74.628;2023-04-09T04:14:26;11.32;;;5.03;;
35745;SDS011;21870;42.812;74.628;2023-04-09T04:16:52;11.85;;;4.10;;
35745;SDS011;21870;42.812;74.628;2023-04-09T04:19:18;9.07;;;3.97;;
35745;SDS011;21870;42.812;74.628;2023-04-09T04:21:44;10.07;;;4.50;;
35745;SDS011;21870;42.812;74.628;2023-04-09T04:24:10;7.95;;;4.22;;
35745;SDS011;21870;42.812;74.628;2023-04-09T04:26:36;6.70;;;3.53;;
35745;SDS011;21870;42.812;74.628;2023-04-09T04:29:03;8.45;;;4.05;;
35745;SDS011;21870;42.812;74.628;2023-04-09T04:31:29;8.55;;;3.72;;
35745;SDS011;21870;42.812;74.628;2023-04-09T04:33:55;8.15;;;3.50;;
35745;SDS011;21870;42.812;74.628;2023-04-09T04:36:21;12.05;;;3.53;;
35745;SDS011;21870;42.812;74.628;2023-04-09T04:38:47;8.73;;;2.90;;
35745;SDS011;21870;42.812;74.628;2023-04-09T04:41:13;9.25;;;3.08;;
35745;SDS011;21870;42.812;74.628;2023-04-09T04:43:40;6.00;;;3.17;;
35745;SDS011;21870;42.812;74.628;2023-04-09T04:46:10;8.57;;;3.42;;
35745;SDS011;21870;42.812;74.628;2023-04-09T04:48:36;7.68;;;2.75;;
35745;SDS011;21870;42.812;74.628;2023-04-09T04:51:02;7.28;;;2.63;;
35745;SDS011;21870;42.812;74.628;2023-04-09T04:53:29;6.10;;;2.80;;
35745;SDS011;21870;42.812;74.628;2023-04-09T04:55:55;6.35;;;2.88;;
35745;SDS011;21870;42.812;74.628;2023-04-09T04:58:21;3.92;;;2.00;;
35745;SDS011;21870;42.812;74.628;2023-04-09T05:00:47;5.40;;;2.30;;
35745;SDS011;21870;42.812;74.628;2023-04-09T05:03:13;7.13;;;3.22;;
35745;SDS011;21870;42.812;74.628;2023-04-09T05:05:39;8.13;;;2.83;;
35745;SDS011;21870;42.812;74.628;2023-04-09T05:08:05;4.72;;;2.38;;
35745;SDS011;21870;42.812;74.628;2023-04-09T05:10:31;6.10;;;3.20;;
35745;SDS011;21870;42.812;74.628;2023-04-09T05:12:58;7.80;;;3.35;;
35745;SDS011;21870;42.812;74.628;2023-04-09T05:15:24;7.45;;;3.17;;
35745;SDS011;21870;42.812;74.628;2023-04-09T05:17:50;6.05;;;2.53;;
35745;SDS011;21870;42.812;74.628;2023-04-09T05:20:16;6.05;;;3.10;;
35745;SDS011;21870;42.812;74.628;2023-04-09T05:22:42;7.45;;;3.05;;
35745;SDS011;21870;42.812;74.628;2023-04-09T05:25:08;12.00;;;2.67;;
35745;SDS011;21870;42.812;74.628;2023-04-09T05:27:34;5.63;;;2.47;;
35745;SDS011;21870;42.812;74.628;2023-04-09T05:30:01;6.03;;;2.53;;
35745;SDS011;21870;42.812;74.628;2023-04-09T05:32:27;8.02;;;1.70;;
35745;SDS011;21870;42.812;74.628;2023-04-09T05:34:53;5.75;;;2.30;;
35745;SDS011;21870;42.812;74.628;2023-04-09T05:37:19;5.60;;;2.33;;
35745;SDS011;21870;42.812;74.628;2023-04-09T05:39:45;7.38;;;1.98;;
35745;SDS011;21870;42.812;74.628;2023-04-09T05:42:11;4.88;;;2.55;;
35745;SDS011;21870;42.812;74.628;2023-04-09T05:44:37;5.78;;;2.47;;
35745;SDS011;21870;42.812;74.628;2023-04-09T05:47:03;6.60;;;3.08;;
35745;SDS011;21870;42.812;74.628;2023-04-09T05:49:29;6.25;;;2.42;;
35745;SDS011;21870;42.812;74.628;2023-04-09T05:51:55;8.15;;;3.38;;
35745;SDS011;21870;42.812;74.628;2023-04-09T05:54:21;11.65;;;4.50;;
35745;SDS011;21870;42.812;74.628;2023-04-09T05:56:47;8.10;;;3.22;;
35745;SDS011;21870;42.812;74.628;2023-04-09T05:59:13;9.35;;;3.78;;
35745;SDS011;21870;42.812;74.628;2023-04-09T06:01:39;7.75;;;3.03;;
35745;SDS011;21870;42.812;74.628;2023-04-09T06:04:05;9.43;;;3.28;;
35745;SDS011;21870;42.812;74.628;2023-04-09T06:06:31;9.40;;;3.95;;
35745;SDS011;21870;42.812;74.628;2023-04-09T06:08:58;4.82;;;3.00;;
35745;SDS011;21870;42.812;74.628;2023-04-09T06:11:24;5.88;;;3.03;;
35745;SDS011;21870;42.812;74.628;2023-04-09T06:13:51;4.10;;;2.28;;
35745;SDS011;21870;42.812;74.628;2023-04-09T06:16:17;4.97;;;3.10;;
35745;SDS011;21870;42.812;74.628;2023-04-09T06:18:43;6.68;;;2.70;;
35745;SDS011;21870;42.812;74.628;2023-04-09T06:21:10;8.98;;;2.83;;
35745;SDS011;21870;42.812;74.628;2023-04-09T06:23:38;7.82;;;3.38;;
35745;SDS011;21870;42.812;74.628;2023-04-09T06:26:04;7.72;;;2.78;;
35745;SDS011;21870;42.812;74.628;2023-04-09T06:28:31;6.88;;;2.90;;
35745;SDS011;21870;42.812;74.628;2023-04-09T06:30:57;7.55;;;2.90;;
35745;SDS011;21870;42.812;74.628;2023-04-09T06:33:23;8.20;;;2.90;;
35745;SDS011;21870;42.812;74.628;2023-04-09T06:35:50;10.82;;;3.15;;
35745;SDS011;21870;42.812;74.628;2023-04-09T06:38:16;10.63;;;2.92;;
35745;SDS011;21870;42.812;74.628;2023-04-09T06:40:42;5.57;;;2.45;;
35745;SDS011;21870;42.812;74.628;2023-04-09T06:43:09;6.32;;;2.72;;
35745;SDS011;21870;42.812;74.628;2023-04-09T06:45:35;11.00;;;3.75;;
35745;SDS011;21870;42.812;74.628;2023-04-09T06:48:02;4.70;;;2.42;;
35745;SDS011;21870;42.812;74.628;2023-04-09T06:50:28;12.55;;;3.60;;
35745;SDS011;21870;42.812;74.628;2023-04-09T06:52:55;9.60;;;3.28;;
35745;SDS011;21870;42.812;74.628;2023-04-09T06:55:22;14.85;;;5.70;;
35745;SDS011;21870;42.812;74.628;2023-04-09T06:57:48;9.55;;;4.22;;
35745;SDS011;21870;42.812;74.628;2023-04-09T07:00:14;8.02;;;3.10;;
35745;SDS011;21870;42.812;74.628;2023-04-09T07:02:40;8.23;;;3.15;;
35745;SDS011;21870;42.812;74.628;2023-04-09T07:05:06;9.10;;;3.30;;
35745;SDS011;21870;42.812;74.628;2023-04-09T07:07:33;5.20;;;2.30;;
35745;SDS011;21870;42.812;74.628;2023-04-09T07:09:59;7.25;;;2.42;;
35745;SDS011;21870;42.812;74.628;2023-04-09T07:12:29;9.40;;;3.05;;
35745;SDS011;21870;42.812;74.628;2023-04-09T07:14:59;9.27;;;3.00;;
35745;SDS011;21870;42.812;74.628;2023-04-09T07:17:26;9.20;;;2.42;;
35745;SDS011;21870;42.812;74.628;2023-04-09T07:19:53;9.70;;;3.05;;
35745;SDS011;21870;42.812;74.628;2023-04-09T07:22:20;10.63;;;3.00;;
35745;SDS011;21870;42.812;74.628;2023-04-09T07:24:47;6.63;;;2.90;;
35745;SDS011;21870;42.812;74.628;2023-04-09T07:27:24;7.93;;;2.40;;
35745;SDS011;21870;42.812;74.628;2023-04-09T07:29:54;7.95;;;3.50;;
35745;SDS011;21870;42.812;74.628;2023-04-09T07:32:22;6.50;;;3.53;;
35745;SDS011;21870;42.812;74.628;2023-04-09T07:34:51;11.43;;;3.30;;
35745;SDS011;21870;42.812;74.628;2023-04-09T07:37:18;8.18;;;3.42;;
35745;SDS011;21870;42.812;74.628;2023-04-09T07:39:45;12.15;;;2.90;;
35745;SDS011;21870;42.812;74.628;2023-04-09T07:42:12;8.05;;;2.85;;
35745;SDS011;21870;42.812;74.628;2023-04-09T07:44:38;7.93;;;3.53;;
35745;SDS011;21870;42.812;74.628;2023-04-09T07:47:05;7.50;;;3.60;;
35745;SDS011;21870;42.812;74.628;2023-04-09T07:49:34;6.65;;;2.88;;
35745;SDS011;21870;42.812;74.628;2023-04-09T07:52:02;8.77;;;2.90;;
35745;SDS011;21870;42.812;74.628;2023-04-09T07:54:28;9.18;;;3.35;;
35745;SDS011;21870;42.812;74.628;2023-04-09T07:56:56;9.20;;;3.40;;
35745;SDS011;21870;42.812;74.628;2023-04-09T07:59:22;4.45;;;2.65;;
35745;SDS011;21870;42.812;74.628;2023-04-09T08:01:49;12.07;;;3.38;;
35745;SDS011;21870;42.812;74.628;2023-04-09T08:04:15;9.82;;;3.00;;
35745;SDS011;21870;42.812;74.628;2023-04-09T08:06:41;9.68;;;2.47;;
35745;SDS011;21870;42.812;74.628;2023-04-09T08:09:10;11.50;;;3.25;;
35745;SDS011;21870;42.812;74.628;2023-04-09T08:11:36;12.93;;;2.60;;
35745;SDS011;21870;42.812;74.628;2023-04-09T08:14:02;9.52;;;3.05;;
35745;SDS011;21870;42.812;74.628;2023-04-09T08:16:30;13.07;;;2.97;;
35745;SDS011;21870;42.812;74.628;2023-04-09T08:18:56;17.75;;;3.42;;
35745;SDS011;21870;42.812;74.628;2023-04-09T08:21:22;13.27;;;3.53;;
35745;SDS011;21870;42.812;74.628;2023-04-09T08:23:48;8.15;;;2.95;;
35745;SDS011;21870;42.812;74.628;2023-04-09T08:26:15;9.48;;;3.05;;
35745;SDS011;21870;42.812;74.628;2023-04-09T08:28:41;12.27;;;2.88;;
35745;SDS011;21870;42.812;74.628;2023-04-09T08:31:10;9.77;;;2.40;;
35745;SDS011;21870;42.812;74.628;2023-04-09T08:33:36;11.32;;;3.78;;
35745;SDS011;21870;42.812;74.628;2023-04-09T08:36:06;8.38;;;2.63;;
35745;SDS011;21870;42.812;74.628;2023-04-09T08:38:33;8.25;;;2.92;;
35745;SDS011;21870;42.812;74.628;2023-04-09T08:41:01;9.25;;;3.13;;
35745;SDS011;21870;42.812;74.628;2023-04-09T08:43:27;18.00;;;4.35;;
35745;SDS011;21870;42.812;74.628;2023-04-09T08:45:54;9.18;;;2.80;;
35745;SDS011;21870;42.812;74.628;2023-04-09T08:48:22;11.70;;;2.78;;
35745;SDS011;21870;42.812;74.628;2023-04-09T08:50:49;15.00;;;4.05;;
35745;SDS011;21870;42.812;74.628;2023-04-09T08:53:16;9.77;;;2.67;;
35745;SDS011;21870;42.812;74.628;2023-04-09T08:55:46;9.07;;;3.08;;
35745;SDS011;21870;42.812;74.628;2023-04-09T08:58:13;11.18;;;2.72;;
35745;SDS011;21870;42.812;74.628;2023-04-09T09:00:39;12.80;;;3.50;;
35745;SDS011;21870;42.812;74.628;2023-04-09T09:03:06;13.48;;;3.80;;
35745;SDS011;21870;42.812;74.628;2023-04-09T09:05:43;10.25;;;3.08;;
35745;SDS011;21870;42.812;74.628;2023-04-09T09:08:11;9.93;;;2.85;;
35745;SDS011;21870;42.812;74.628;2023-04-09T09:10:42;6.93;;;3.63;;
35745;SDS011;21870;42.812;74.628;2023-04-09T09:13:27;10.32;;;3.22;;
35745;SDS011;21870;42.812;74.628;2023-04-09T09:15:54;7.47;;;2.95;;
35745;SDS011;21870;42.812;74.628;2023-04-09T09:18:37;11.85;;;3.53;;
35745;SDS011;21870;42.812;74.628;2023-04-09T09:21:17;9.02;;;3.10;;
35745;SDS011;21870;42.812;74.628;2023-04-09T09:23:43;11.95;;;3.17;;
35745;SDS011;21870;42.812;74.628;2023-04-09T09:26:12;11.50;;;2.88;;
35745;SDS011;21870;42.812;74.628;2023-04-09T09:28:40;9.18;;;2.88;;
35745;SDS011;21870;42.812;74.628;2023-04-09T09:31:07;9.32;;;3.25;;
35745;SDS011;21870;42.812;74.628;2023-04-09T09:33:34;13.05;;;3.58;;
35745;SDS011;21870;42.812;74.628;2023-04-09T09:36:00;12.13;;;3.30;;
35745;SDS011;21870;42.812;74.628;2023-04-09T09:38:28;9.55;;;4.20;;
35745;SDS011;21870;42.812;74.628;2023-04-09T09:40:55;12.82;;;3.80;;
35745;SDS011;21870;42.812;74.628;2023-04-09T09:43:21;9.20;;;2.83;;
35745;SDS011;21870;42.812;74.628;2023-04-09T09:45:47;9.05;;;2.85;;
35745;SDS011;21870;42.812;74.628;2023-04-09T09:48:13;13.65;;;3.38;;
35745;SDS011;21870;42.812;74.628;2023-04-09T09:50:40;12.48;;;3.45;;
35745;SDS011;21870;42.812;74.628;2023-04-09T09:53:08;12.35;;;2.53;;
35745;SDS011;21870;42.812;74.628;2023-04-09T09:55:39;9.85;;;2.88;;
35745;SDS011;21870;42.812;74.628;2023-04-09T09:58:51;9.27;;;2.97;;
35745;SDS011;21870;42.812;74.628;2023-04-09T10:00:58;13.77;;;3.67;;
35745;SDS011;21870;42.812;74.628;2023-04-09T10:03:28;9.18;;;2.60;;
35745;SDS011;21870;42.812;74.628;2023-04-09T10:05:56;10.02;;;3.20;;
35745;SDS011;21870;42.812;74.628;2023-04-09T10:08:24;10.45;;;2.80;;
35745;SDS011;21870;42.812;74.628;2023-04-09T10:10:51;13.02;;;2.75;;
35745;SDS011;21870;42.812;74.628;2023-04-09T10:13:23;6.97;;;2.88;;
35745;SDS011;21870;42.812;74.628;2023-04-09T10:15:56;12.65;;;3.15;;
35745;SDS011;21870;42.812;74.628;2023-04-09T10:18:23;9.60;;;2.60;;
35745;SDS011;21870;42.812;74.628;2023-04-09T10:23:23;9.57;;;3.40;;
35745;SDS011;21870;42.812;74.628;2023-04-09T10:26:12;10.60;;;3.22;;
35745;SDS011;21870;42.812;74.628;2023-04-09T10:28:38;12.38;;;3.85;;
35745;SDS011;21870;42.812;74.628;2023-04-09T10:31:05;12.90;;;3.92;;
35745;SDS011;21870;42.812;74.628;2023-04-09T10:33:32;8.43;;;3.20;;
35745;SDS011;21870;42.812;74.628;2023-04-09T10:36:05;13.82;;;4.72;;
35745;SDS011;21870;42.812;74.628;2023-04-09T10:38:37;12.60;;;3.25;;
35745;SDS011;21870;42.812;74.628;2023-04-09T10:43:36;18.52;;;4.80;;
35745;SDS011;21870;42.812;74.628;2023-04-09T10:46:03;12.30;;;4.07;;
35745;SDS011;21870;42.812;74.628;2023-04-09T10:48:32;8.20;;;3.58;;
35745;SDS011;21870;42.812;74.628;2023-04-09T10:51:01;12.52;;;4.43;;
35745;SDS011;21870;42.812;74.628;2023-04-09T10:53:30;13.55;;;4.38;;
35745;SDS011;21870;42.812;74.628;2023-04-09T10:55:57;12.95;;;4.03;;
35745;SDS011;21870;42.812;74.628;2023-04-09T10:58:23;13.68;;;4.63;;
35745;SDS011;21870;42.812;74.628;2023-04-09T11:00:50;11.88;;;4.40;;
35745;SDS011;21870;42.812;74.628;2023-04-09T11:03:22;11.38;;;4.75;;
35745;SDS011;21870;42.812;74.628;2023-04-09T11:08:20;17.00;;;6.88;;
35745;SDS011;21870;42.812;74.628;2023-04-09T11:10:46;15.05;;;4.13;;
35745;SDS011;21870;42.812;74.628;2023-04-09T11:13:13;12.25;;;4.25;;
35745;SDS011;21870;42.812;74.628;2023-04-09T11:15:42;13.82;;;3.97;;
35745;SDS011;21870;42.812;74.628;2023-04-09T11:18:13;8.70;;;3.92;;
35745;SDS011;21870;42.812;74.628;2023-04-09T11:20:53;12.43;;;4.13;;
35745;SDS011;21870;42.812;74.628;2023-04-09T11:23:20;14.65;;;3.85;;
35745;SDS011;21870;42.812;74.628;2023-04-09T11:25:48;8.60;;;3.13;;
35745;SDS011;21870;42.812;74.628;2023-04-09T11:28:15;7.20;;;3.05;;
35745;SDS011;21870;42.812;74.628;2023-04-09T11:30:41;8.65;;;3.10;;
35745;SDS011;21870;42.812;74.628;2023-04-09T11:33:08;6.25;;;2.67;;
35745;SDS011;21870;42.812;74.628;2023-04-09T11:35:34;12.77;;;4.30;;
35745;SDS011;21870;42.812;74.628;2023-04-09T11:38:06;9.30;;;3.60;;
35745;SDS011;21870;42.812;74.628;2023-04-09T11:40:36;11.88;;;4.07;;
35745;SDS011;21870;42.812;74.628;2023-04-09T11:43:11;12.60;;;5.13;;
35745;SDS011;21870;42.812;74.628;2023-04-09T11:45:40;10.50;;;5.00;;
35745;SDS011;21870;42.812;74.628;2023-04-09T11:48:07;7.53;;;3.60;;
35745;SDS011;21870;42.812;74.628;2023-04-09T11:50:33;6.32;;;2.80;;
35745;SDS011;21870;42.812;74.628;2023-04-09T11:53:00;6.22;;;3.53;;
35745;SDS011;21870;42.812;74.628;2023-04-09T11:55:39;5.07;;;3.13;;
35745;SDS011;21870;42.812;74.628;2023-04-09T11:58:05;4.15;;;2.95;;
35745;SDS011;21870;42.812;74.628;2023-04-09T12:00:38;6.30;;;3.10;;
35745;SDS011;21870;42.812;74.628;2023-04-09T12:03:05;6.40;;;3.60;;
35745;SDS011;21870;42.812;74.628;2023-04-09T12:05:32;5.10;;;3.42;;
35745;SDS011;21870;42.812;74.628;2023-04-09T12:08:03;7.40;;;4.22;;
35745;SDS011;21870;42.812;74.628;2023-04-09T12:10:35;6.60;;;3.55;;
35745;SDS011;21870;42.812;74.628;2023-04-09T12:13:04;7.28;;;3.85;;
35745;SDS011;21870;42.812;74.628;2023-04-09T12:15:32;7.43;;;3.47;;
35745;SDS011;21870;42.812;74.628;2023-04-09T12:18:00;8.85;;;4.20;;
35745;SDS011;21870;42.812;74.628;2023-04-09T12:23:08;4.28;;;3.17;;
35745;SDS011;21870;42.812;74.628;2023-04-09T12:25:36;4.32;;;3.05;;
35745;SDS011;21870;42.812;74.628;2023-04-09T12:28:04;6.07;;;3.28;;
35745;SDS011;21870;42.812;74.628;2023-04-09T12:30:31;5.35;;;2.85;;
35745;SDS011;21870;42.812;74.628;2023-04-09T12:32:58;6.32;;;2.92;;
35745;SDS011;21870;42.812;74.628;2023-04-09T12:35:25;5.03;;;2.88;;
35745;SDS011;21870;42.812;74.628;2023-04-09T12:37:52;6.30;;;3.08;;
35745;SDS011;21870;42.812;74.628;2023-04-09T12:40:19;4.10;;;2.70;;
35745;SDS011;21870;42.812;74.628;2023-04-09T12:42:45;4.45;;;2.33;;
35745;SDS011;21870;42.812;74.628;2023-04-09T12:45:13;5.43;;;2.70;;
35745;SDS011;21870;42.812;74.628;2023-04-09T12:47:40;4.40;;;2.40;;
35745;SDS011;21870;42.812;74.628;2023-04-09T12:50:07;9.15;;;3.25;;
35745;SDS011;21870;42.812;74.628;2023-04-09T12:52:35;7.40;;;5.03;;
35745;SDS011;21870;42.812;74.628;2023-04-09T12:55:01;10.88;;;6.78;;
35745;SDS011;21870;42.812;74.628;2023-04-09T12:57:28;11.88;;;8.20;;
35745;SDS011;21870;42.812;74.628;2023-04-09T12:59:54;9.82;;;7.28;;
35745;SDS011;21870;42.812;74.628;2023-04-09T13:02:20;11.50;;;7.63;;
35745;SDS011;21870;42.812;74.628;2023-04-09T13:04:47;11.95;;;8.52;;
35745;SDS011;21870;42.812;74.628;2023-04-09T13:07:14;15.85;;;11.23;;
35745;SDS011;21870;42.812;74.628;2023-04-09T13:09:42;15.27;;;11.23;;
35745;SDS011;21870;42.812;74.628;2023-04-09T13:12:09;12.00;;;9.80;;
35745;SDS011;21870;42.812;74.628;2023-04-09T13:14:39;13.95;;;10.82;;
35745;SDS011;21870;42.812;74.628;2023-04-09T13:17:06;8.73;;;6.90;;
35745;SDS011;21870;42.812;74.628;2023-04-09T13:19:32;7.65;;;6.45;;
35745;SDS011;21870;42.812;74.628;2023-04-09T13:21:58;8.38;;;5.35;;
35745;SDS011;21870;42.812;74.628;2023-04-09T13:24:24;7.22;;;5.38;;
35745;SDS011;21870;42.812;74.628;2023-04-09T13:26:50;7.05;;;5.45;;
35745;SDS011;21870;42.812;74.628;2023-04-09T13:29:16;5.80;;;5.05;;
35745;SDS011;21870;42.812;74.628;2023-04-09T13:31:42;5.93;;;5.07;;
35745;SDS011;21870;42.812;74.628;2023-04-09T13:34:08;6.72;;;4.95;;
35745;SDS011;21870;42.812;74.628;2023-04-09T13:36:35;5.15;;;3.65;;
35745;SDS011;21870;42.812;74.628;2023-04-09T13:39:01;6.35;;;4.90;;
35745;SDS011;21870;42.812;74.628;2023-04-09T13:41:31;7.53;;;5.40;;
35745;SDS011;21870;42.812;74.628;2023-04-09T13:43:58;8.80;;;5.18;;
35745;SDS011;21870;42.812;74.628;2023-04-09T13:46:25;7.93;;;4.95;;
35745;SDS011;21870;42.812;74.628;2023-04-09T13:48:51;6.68;;;3.45;;
35745;SDS011;21870;42.812;74.628;2023-04-09T13:51:19;6.50;;;4.60;;
35745;SDS011;21870;42.812;74.628;2023-04-09T13:53:50;6.30;;;3.78;;
35745;SDS011;21870;42.812;74.628;2023-04-09T13:56:16;6.35;;;4.45;;
35745;SDS011;21870;42.812;74.628;2023-04-09T13:58:43;10.68;;;4.10;;
35745;SDS011;21870;42.812;74.628;2023-04-09T14:01:09;7.47;;;3.55;;
35745;SDS011;21870;42.812;74.628;2023-04-09T14:03:36;5.20;;;3.55;;
35745;SDS011;21870;42.812;74.628;2023-04-09T14:06:04;14.45;;;4.03;;
35745;SDS011;21870;42.812;74.628;2023-04-09T14:08:34;8.43;;;3.03;;
35745;SDS011;21870;42.812;74.628;2023-04-09T14:11:01;5.53;;;3.08;;
35745;SDS011;21870;42.812;74.628;2023-04-09T14:13:27;4.80;;;2.85;;
35745;SDS011;21870;42.812;74.628;2023-04-09T14:15:53;5.13;;;2.92;;
35745;SDS011;21870;42.812;74.628;2023-04-09T14:18:19;5.85;;;2.90;;
35745;SDS011;21870;42.812;74.628;2023-04-09T14:20:46;6.13;;;3.28;;
35745;SDS011;21870;42.812;74.628;2023-04-09T14:23:12;5.18;;;2.92;;
35745;SDS011;21870;42.812;74.628;2023-04-09T14:25:41;7.38;;;2.80;;
35745;SDS011;21870;42.812;74.628;2023-04-09T14:28:08;6.00;;;2.88;;
35745;SDS011;21870;42.812;74.628;2023-04-09T14:30:34;7.90;;;3.00;;
35745;SDS011;21870;42.812;74.628;2023-04-09T14:33:00;5.25;;;3.03;;
35745;SDS011;21870;42.812;74.628;2023-04-09T14:35:26;6.53;;;2.80;;
35745;SDS011;21870;42.812;74.628;2023-04-09T14:37:52;7.40;;;3.70;;
35745;SDS011;21870;42.812;74.628;2023-04-09T14:40:19;7.93;;;3.58;;
35745;SDS011;21870;42.812;74.628;2023-04-09T14:42:45;4.25;;;2.75;;
35745;SDS011;21870;42.812;74.628;2023-04-09T14:45:11;6.95;;;3.00;;
35745;SDS011;21870;42.812;74.628;2023-04-09T14:47:37;6.72;;;3.13;;
35745;SDS011;21870;42.812;74.628;2023-04-09T14:50:03;6.47;;;3.10;;
35745;SDS011;21870;42.812;74.628;2023-04-09T14:52:30;5.75;;;2.90;;
35745;SDS011;21870;42.812;74.628;2023-04-09T14:54:56;6.80;;;2.40;;
35745;SDS011;21870;42.812;74.628;2023-04-09T14:57:22;3.25;;;2.38;;